AirNav   Everest Fuels
 
 526 users online  

56FA University Hospital & Medical Center Heliport
Tamarac, Florida, USA

GOING TO TAMARAC?


FAA INFORMATION EFFECTIVE 16 JULY 2020

Location

FAA Identifier: 56FA
Lat/Long: 26-12-43.2800N 080-15-20.4900W
26-12.721333N 080-15.341500W
26.2120222,-80.2556917
(estimated)
Elevation: 12 ft. / 4 m (estimated)
From city: 1 mile W of TAMARAC, FL
Time zone: UTC -4 (UTC -5 during Standard Time)
Zip code: 33321

Heliport Operations

Heliport use: Private use. Permission required prior to landing
Activation date: 12/2015
Control tower: no
ARTCC: MIAMI CENTER
FSS: MIAMI FLIGHT SERVICE STATION
Attendance: UNATNDD
Wind indicator: yes
Segmented circle: yes

Heliport Communications

WX ASOS at FXE (5 nm E): PHONE 954-772-2537
WX ASOS at PMP (8 nm E): PHONE 954-783-3720
WX ASOS at FLL (10 nm SE): PHONE 954-359-7857
WX ASOS at HWO (13 nm S): PHONE 954-983-5904
WX AWOS-3 at BCT (13 nm NE): 121.125 (561-391-2696)
WX ASOS at OPF (18 nm S): 125.9 (305-681-4063)

Nearby radio navigation aids

VOR radial/distance  VOR name  Freq  Var
FLLr336/9.6FORT LAUDERDALE VOR/DME114.4006W
DHPr016/25.2DOLPHIN VORTAC113.9004W
VKZr353/28.1VIRGINIA KEY VOR/DME117.1004W
PBIr201/29.5PALM BEACH VORTAC115.7003W

Heliport Services

Runway Information

Helipad H1

Dimensions: 40 x 40 ft. / 12 x 12 m
Surface: concrete
Traffic pattern: leftleft

Heliport Ownership and Management from official FAA records

Ownership: Privately-owned
Owner: UNIVERSITY HOSPITAL, LTD
7201 UNIVERSITY DRIVE
TAMARAC, FL 33321
Manager: BERT REESE
7201 UNIVERSITY DRIVE
TAMARAC, FL 33321
Phone (954) 724-6661
ADDITIONAL CONTACT: JASON CUNNINGHAM JASON.CUNNINGHAM@HEAHEALTHCARE.COM

Additional Remarks

FOR CD CTC MIAMI APCH AT 305-869-5432.

Instrument Procedures

There are no published instrument procedures at 56FA.

Some nearby airports with instrument procedures:

KFXE - Fort Lauderdale Executive Airport (5 nm E)
KPMP - Pompano Beach Airpark (8 nm E)
KFLL - Fort Lauderdale/Hollywood International Airport (10 nm SE)
KHWO - North Perry Airport (13 nm S)
KBCT - Boca Raton Airport (13 nm NE)
KOPF - Miami-Opa Locka Executive Airport (18 nm S)
 
Loc | Ops | Rwys | IFR | FBO | Links
Com | Nav | Svcs | Stats | Notes
Aerial photo
No photo
 
Airport distance calculator
Flying to University Hospital & Medical Center Heliport? Find the distance to fly.

From to 56FA

Sunrise and sunset
Times for 10-Aug-2020
 Local
(UTC-4)
 Zulu
(UTC)
Morning civil twilight06:2810:28
Sunrise06:5210:52
Sunset20:0024:00
Evening civil twilight20:2400:24

Current date and time
Zulu (UTC)  10-Aug-2020 10:55:38
Local (UTC-4)  10-Aug-2020 06:55:38
 
METAR
KFXE 
4nm E 
100953Z AUTO 02003KT 10SM CLR 28/26 A3007 RMK AO2 SLP184 T02780256 TSNO PNO $
KPMP 
8nm E 
100953Z AUTO 09003KT 10SM CLR 26/24 A3007 RMK AO2 SLP184 T02610244
KFLL 
10nm SE 
100953Z 10003KT 10SM FEW023 29/24 A3006 RMK AO2 SLP180 T02890244 $
KHWO 
13nm S 
100953Z AUTO 00000KT 10SM CLR 28/26 A3008 RMK AO2 SLP187 T02780261
KBCT 
13nm NE 
100247Z 12005KT 10SM CLR 29/24 A3013
KOPF 
18nm S 
100953Z AUTO 00000KT 10SM CLR 27/24 A3007 RMK AO2 SLP184 T02720239
TAF
KFXE 
4nm E 
100917Z 1009/1106 10004KT P6SM SKC FM101500 09004KT P6SM FEW025 SCT200 FM101800 09006KT P6SM VCTS FEW030CB FEW250 FM110000 09004KT P6SM FEW030 SCT250
KFLL 
10nm SE 
100917Z 1009/1112 12006KT P6SM FEW023 TEMPO 1010/1014 BKN025 FM101500 09005KT P6SM FEW025 SCT200 FM101800 09006KT P6SM VCTS FEW030CB FEW250 FM110000 09005KT P6SM FEW030 SCT250
KOPF 
18nm S 
100918Z 1009/1106 00000KT P6SM FEW020 TEMPO 1010/1014 BKN025 FM101500 09004KT P6SM FEW025 SCT150 FM101800 09006KT P6SM VCTS FEW035CB FEW250 FM110000 09004KT P6SM FEW035 SCT250
NOTAMs
Click for the latest NOTAMs
NOTAMs are issued by the DoD/FAA and will open in a separate window not controlled by AirNav.

 

 
 

Would you like to see your business listed on this page?

 If your business provides an interesting product or service to pilots, flight crews, aircraft, or users of the University Hospital & Medical Center Heliport, you should consider listing it here.  To start the listing process, click on the button below
 
Add a business
 

Other Pages about University Hospital & Medical Center Heliport

Update a link
 
Copyright © AirNav, LLC. All rights reserved. Privacy Policy  Contact